Time,TemperatureF,DewpointF,PressureIn,WindDirection,WindDirectionDegrees,WindSpeedMPH,WindSpeedGustMPH,Humidity,HourlyPrecipIn,Conditions,Clouds,dailyrainin,SoftwareType,DateUTC
2013-09-11 00:01:00,65.8,46.0,29.86,NNW,340,7.0,9.0,49,0.00,,,0.00,weatherlink.com 1.10,2013-09-11 06:01:00,
2013-09-11 00:16:00,65.4,45.0,29.86,North,5,8.0,10.0,48,0.00,,,0.00,weatherlink.com 1.10,2013-09-11 06:16:00,
2013-09-11 00:31:00,64.8,46.0,29.87,NNW,333,6.0,9.0,50,0.00,,,0.00,weatherlink.com 1.10,2013-09-11 06:31:00,
2013-09-11 00:46:00,64.0,45.0,29.88,North,360,6.0,8.0,50,0.00,,,0.00,weatherlink.com 1.10,2013-09-11 06:46:00,
2013-09-11 01:01:00,62.7,45.0,29.88,NNE,13,5.0,9.0,53,0.00,,,0.00,weatherlink.com 1.10,2013-09-11 07:01:00,
2013-09-11 01:16:00,61.8,45.0,29.89,NNE,32,5.0,6.0,54,0.00,,,0.00,weatherlink.com 1.10,2013-09-11 07:16:00,
2013-09-11 01:31:00,60.4,46.0,29.89,North,9,0.0,5.0,59,0.00,,,0.00,weatherlink.com 1.10,2013-09-11 07:31:00,
2013-09-11 01:46:00,57.9,47.0,29.89,North,9,0.0,0.0,66,0.00,,,0.00,weatherlink.com 1.10,2013-09-11 07:46:00,
2013-09-11 02:01:00,55.3,47.0,29.90,ESE,115,1.0,3.0,74,0.00,,,0.00,weatherlink.com 1.10,2013-09-11 08:01:00,
2013-09-11 02:17:00,54.6,47.0,29.90,ESE,115,0.0,1.0,75,0.00,,,0.00,weatherlink.com 1.10,2013-09-11 08:17:00,
2013-09-11 02:32:00,53.9,47.0,29.91,ENE,62,0.0,2.0,77,0.00,,,0.00,weatherlink.com 1.10,2013-09-11 08:32:00,
2013-09-11 02:47:00,52.9,47.0,29.91,ENE,62,0.0,1.0,79,0.00,,,0.00,weatherlink.com 1.10,2013-09-11 08:47:00,
2013-09-11 03:02:00,52.7,46.0,29.91,ENE,62,0.0,0.0,79,0.00,,,0.00,weatherlink.com 1.10,2013-09-11 09:02:00,
2013-09-11 03:17:00,51.8,46.0,29.91,ENE,62,0.0,0.0,79,0.00,,,0.00,weatherlink.com 1.10,2013-09-11 09:17:00,
2013-09-11 03:32:00,50.9,46.0,29.92,ENE,62,0.0,0.0,84,0.00,,,0.00,weatherlink.com 1.10,2013-09-11 09:32:00,
2013-09-11 03:47:00,50.6,45.0,29.92,ENE,62,0.0,0.0,80,0.00,,,0.00,weatherlink.com 1.10,2013-09-11 09:47:00,
2013-09-11 04:02:00,50.2,45.0,29.92,ENE,62,0.0,0.0,82,0.00,,,0.00,weatherlink.com 1.10,2013-09-11 10:02:00,
2013-09-11 04:17:00,49.4,45.0,29.93,ENE,62,0.0,0.0,84,0.00,,,0.00,weatherlink.com 1.10,2013-09-11 10:17:00,
2013-09-11 04:32:00,48.8,45.0,29.93,ENE,62,0.0,0.0,88,0.00,,,0.00,weatherlink.com 1.10,2013-09-11 10:32:00,
2013-09-11 04:47:00,48.5,46.0,29.93,ENE,62,0.0,1.0,90,0.00,,,0.00,weatherlink.com 1.10,2013-09-11 10:47:00,
2013-09-11 05:02:00,48.3,45.0,29.94,ENE,62,0.0,0.0,89,0.00,,,0.00,weatherlink.com 1.10,2013-09-11 11:02:00,
2013-09-11 05:17:00,47.6,44.0,29.94,ENE,62,0.0,0.0,88,0.00,,,0.00,weatherlink.com 1.10,2013-09-11 11:17:00,
2013-09-11 05:32:00,47.3,45.0,29.95,ENE,62,0.0,0.0,90,0.00,,,0.00,weatherlink.com 1.10,2013-09-11 11:32:00,
2013-09-11 05:47:00,46.7,45.0,29.95,ENE,62,0.0,0.0,92,0.00,,,0.00,weatherlink.com 1.10,2013-09-11 11:47:00,
2013-09-11 06:02:00,46.5,44.0,29.95,ENE,62,0.0,0.0,91,0.00,,,0.00,weatherlink.com 1.10,2013-09-11 12:02:00,
2013-09-11 06:17:00,46.0,44.0,29.96,ENE,62,0.0,0.0,92,0.00,,,0.00,weatherlink.com 1.10,2013-09-11 12:17:00,
2013-09-11 06:32:00,45.6,44.0,29.96,ENE,62,0.0,0.0,93,0.00,,,0.00,weatherlink.com 1.10,2013-09-11 12:32:00,
2013-09-11 06:47:00,45.3,43.0,29.97,ENE,62,0.0,0.0,92,0.00,,,0.00,weatherlink.com 1.10,2013-09-11 12:47:00,
2013-09-11 07:02:00,45.2,44.0,29.98,ENE,62,0.0,0.0,94,0.00,,,0.00,weatherlink.com 1.10,2013-09-11 13:02:00,
2013-09-11 07:17:00,45.2,43.0,29.98,ENE,62,0.0,0.0,93,0.00,,,0.00,weatherlink.com 1.10,2013-09-11 13:17:00,
2013-09-11 07:32:00,44.7,43.0,29.98,ENE,62,0.0,0.0,93,0.00,,,0.00,weatherlink.com 1.10,2013-09-11 13:32:00,
2013-09-11 07:47:00,44.5,43.0,29.99,ENE,62,0.0,0.0,94,0.00,,,0.00,weatherlink.com 1.10,2013-09-11 13:47:00,
2013-09-11 08:03:00,44.6,43.0,29.99,ENE,62,0.0,1.0,94,0.00,,,0.00,weatherlink.com 1.10,2013-09-11 14:03:00,
2013-09-11 08:18:00,44.9,44.0,30.00,ENE,62,0.0,1.0,95,0.00,,,0.00,weatherlink.com 1.10,2013-09-11 14:18:00,
2013-09-11 08:33:00,46.8,45.0,30.00,ENE,62,0.0,0.0,93,0.00,,,0.00,weatherlink.com 1.10,2013-09-11 14:33:00,
2013-09-11 08:48:00,49.3,46.0,30.00,ENE,62,0.0,1.0,89,0.00,,,0.00,weatherlink.com 1.10,2013-09-11 14:48:00,
2013-09-11 09:03:00,51.7,47.0,30.00,NNE,33,0.0,0.0,84,0.00,,,0.00,weatherlink.com 1.10,2013-09-11 15:03:00,
2013-09-11 09:18:00,54.2,47.0,30.00,NNE,33,0.0,0.0,78,0.00,,,0.00,weatherlink.com 1.10,2013-09-11 15:18:00,
2013-09-11 09:33:00,56.6,48.0,30.00,NE,48,0.0,1.0,73,0.00,,,0.00,weatherlink.com 1.10,2013-09-11 15:33:00,
2013-09-11 09:48:00,57.9,47.0,30.00,South,186,0.0,1.0,68,0.00,,,0.00,weatherlink.com 1.10,2013-09-11 15:48:00,
2013-09-11 10:03:00,59.4,47.0,30.00,SE,143,1.0,3.0,64,0.00,,,0.00,weatherlink.com 1.10,2013-09-11 16:03:00,
2013-09-11 10:18:00,61.0,47.0,30.00,SSE,148,0.0,4.0,61,0.00,,,0.00,weatherlink.com 1.10,2013-09-11 16:18:00,
2013-09-11 10:33:00,62.2,47.0,29.99,SW,230,1.0,7.0,57,0.00,,,0.00,weatherlink.com 1.10,2013-09-11 16:33:00,
2013-09-11 10:48:00,63.4,47.0,29.99,SSW,197,0.0,6.0,55,0.00,,,0.00,weatherlink.com 1.10,2013-09-11 16:48:00,
2013-09-11 11:03:00,65.0,47.0,29.99,South,173,1.0,5.0,52,0.00,,,0.00,weatherlink.com 1.10,2013-09-11 17:03:00,
2013-09-11 11:18:00,66.9,47.0,29.98,SSE,159,0.0,3.0,49,0.00,,,0.00,weatherlink.com 1.10,2013-09-11 17:18:00,
2013-09-11 11:33:00,68.5,47.0,29.98,NNW,343,0.0,4.0,47,0.00,,,0.00,weatherlink.com 1.10,2013-09-11 17:33:00,
2013-09-11 11:49:00,68.9,48.0,29.97,NNE,20,2.0,5.0,48,0.00,,,0.00,weatherlink.com 1.10,2013-09-11 17:49:00,
2013-09-11 12:04:00,71.0,50.0,29.96,NNW,331,2.0,5.0,47,0.00,,,0.00,weatherlink.com 1.10,2013-09-11 18:04:00,
2013-09-11 12:19:00,72.9,50.0,29.95,WNW,291,0.0,6.0,44,0.00,,,0.00,weatherlink.com 1.10,2013-09-11 18:19:00,
2013-09-11 12:34:00,74.9,50.0,29.94,North,360,1.0,5.0,41,0.00,,,0.00,weatherlink.com 1.10,2013-09-11 18:34:00,
2013-09-11 12:49:00,77.9,51.0,29.94,WNW,290,2.0,6.0,39,0.00,,,0.00,weatherlink.com 1.10,2013-09-11 18:49:00,
2013-09-11 13:04:00,80.3,49.0,29.93,WNW,286,0.0,5.0,34,0.00,,,0.00,weatherlink.com 1.10,2013-09-11 19:04:00,
2013-09-11 13:19:00,82.6,48.0,29.92,WSW,257,1.0,10.0,30,0.00,,,0.00,weatherlink.com 1.10,2013-09-11 19:19:00,
2013-09-11 13:34:00,84.1,48.0,29.91,NNW,337,9.0,12.0,28,0.00,,,0.00,weatherlink.com 1.10,2013-09-11 19:34:00,
2013-09-11 13:49:00,85.3,47.0,29.91,WSW,238,5.0,14.0,26,0.00,,,0.00,weatherlink.com 1.10,2013-09-11 19:49:00,
2013-09-11 14:04:00,85.5,44.0,29.90,North,360,5.0,12.0,23,0.00,,,0.00,weatherlink.com 1.10,2013-09-11 20:04:00,
2013-09-11 14:19:00,87.1,43.0,29.88,ENE,63,12.0,22.0,21,0.00,,,0.00,weatherlink.com 1.10,2013-09-11 20:19:00,
2013-09-11 14:34:00,87.5,43.0,29.89,ENE,65,9.0,18.0,21,0.00,,,0.00,weatherlink.com 1.10,2013-09-11 20:34:00,
2013-09-11 14:49:00,87.4,40.0,29.89,NNE,18,15.0,20.0,19,0.00,,,0.00,weatherlink.com 1.10,2013-09-11 20:49:00,
2013-09-11 15:04:00,88.3,40.0,29.88,NE,42,13.0,17.0,18,0.00,,,0.00,weatherlink.com 1.10,2013-09-11 21:04:00,
2013-09-11 15:19:00,88.1,40.0,29.88,ENE,70,12.0,17.0,18,0.00,,,0.00,weatherlink.com 1.10,2013-09-11 21:19:00,
2013-09-11 15:34:00,88.9,37.0,29.87,ENE,66,13.0,16.0,16,0.00,,,0.00,weatherlink.com 1.10,2013-09-11 21:34:00,
2013-09-11 15:49:00,89.0,36.0,29.87,NE,37,11.0,18.0,15,0.00,,,0.00,weatherlink.com 1.10,2013-09-11 21:49:00,
2013-09-11 16:04:00,89.2,36.0,29.87,NE,40,12.0,20.0,15,0.00,,,0.00,weatherlink.com 1.10,2013-09-11 22:04:00,
2013-09-11 16:19:00,89.1,34.0,29.86,ENE,73,12.0,17.0,14,0.00,,,0.00,weatherlink.com 1.10,2013-09-11 22:19:00,
2013-09-11 16:34:00,89.4,34.0,29.87,NE,37,16.0,17.0,14,0.00,,,0.00,weatherlink.com 1.10,2013-09-11 22:34:00,
2013-09-11 16:49:00,89.5,36.0,29.86,NNE,26,7.0,15.0,15,0.00,,,0.00,weatherlink.com 1.10,2013-09-11 22:49:00,
2013-09-11 17:05:00,89.2,36.0,29.86,ENE,77,3.0,11.0,15,0.00,,,0.00,weatherlink.com 1.10,2013-09-11 23:05:00,
2013-09-11 17:35:00,-999.0,-99.9,29.86,North,-999,-999.0,-999.0,-999,0.00,,,0.00,weatherlink.com 1.10,2013-09-11 23:35:00,
2013-09-11 17:50:00,-999.0,-99.9,29.85,North,-999,-999.0,-999.0,-999,0.00,,,0.00,weatherlink.com 1.10,2013-09-11 23:50:00,
2013-09-11 18:05:00,-999.0,-99.9,29.85,North,-999,-999.0,-999.0,-999,0.00,,,0.00,weatherlink.com 1.10,2013-09-12 00:05:00,
2013-09-11 18:20:00,-999.0,-99.9,29.85,North,-999,-999.0,-999.0,-999,0.00,,,0.00,weatherlink.com 1.10,2013-09-12 00:20:00,
2013-09-11 18:35:00,87.6,39.0,29.85,NE,49,11.0,19.0,18,0.00,,,0.00,weatherlink.com 1.10,2013-09-12 00:35:00,
2013-09-11 18:50:00,86.9,41.0,29.85,ENE,67,11.0,15.0,20,0.00,,,0.00,weatherlink.com 1.10,2013-09-12 00:50:00,
2013-09-11 19:05:00,85.8,42.0,29.85,NE,51,13.0,21.0,21,0.00,,,0.00,weatherlink.com 1.10,2013-09-12 01:05:00,
2013-09-11 19:20:00,84.7,42.0,29.85,ENE,63,17.0,19.0,22,0.00,,,0.00,weatherlink.com 1.10,2013-09-12 01:20:00,
2013-09-11 19:35:00,83.4,42.0,29.84,NE,46,18.0,22.0,23,0.00,,,0.00,weatherlink.com 1.10,2013-09-12 01:35:00,
2013-09-11 19:50:00,82.5,41.0,29.84,NE,49,16.0,22.0,23,0.00,,,0.00,weatherlink.com 1.10,2013-09-12 01:50:00,
2013-09-11 20:05:00,81.7,42.0,29.84,ENE,68,14.0,21.0,24,0.00,,,0.00,weatherlink.com 1.10,2013-09-12 02:05:00,
2013-09-11 20:20:00,81.2,41.0,29.85,ENE,77,8.0,21.0,24,0.00,,,0.00,weatherlink.com 1.10,2013-09-12 02:20:00,
2013-09-11 20:35:00,80.7,42.0,29.85,NE,42,6.0,18.0,25,0.00,,,0.00,weatherlink.com 1.10,2013-09-12 02:35:00,
2013-09-11 20:50:00,80.4,42.0,29.86,SW,217,5.0,9.0,26,0.00,,,0.00,weatherlink.com 1.10,2013-09-12 02:50:00,
2013-09-11 21:05:00,77.9,42.0,29.87,WNW,300,7.0,12.0,28,0.00,,,0.00,weatherlink.com 1.10,2013-09-12 03:05:00,
2013-09-11 21:20:00,78.1,42.0,29.87,NNW,348,8.0,13.0,28,0.00,,,0.00,weatherlink.com 1.10,2013-09-12 03:20:00,
2013-09-11 21:35:00,76.9,43.0,29.88,WNW,296,6.0,8.0,30,0.00,,,0.00,weatherlink.com 1.10,2013-09-12 03:35:00,
2013-09-11 21:50:00,76.2,43.0,29.88,NNW,347,5.0,9.0,30,0.00,,,0.00,weatherlink.com 1.10,2013-09-12 03:50:00,
2013-09-11 22:05:00,75.3,43.0,29.88,North,11,4.0,8.0,32,0.00,,,0.00,weatherlink.com 1.10,2013-09-12 04:05:00,
2013-09-11 22:20:00,75.6,44.0,29.89,NNE,30,7.0,9.0,32,0.00,,,0.00,weatherlink.com 1.10,2013-09-12 04:20:00,
2013-09-11 22:35:00,74.6,44.0,29.89,North,355,6.0,9.0,33,0.00,,,0.00,weatherlink.com 1.10,2013-09-12 04:35:00,
2013-09-11 22:50:00,73.6,43.0,29.90,North,355,6.0,8.0,34,0.00,,,0.00,weatherlink.com 1.10,2013-09-12 04:50:00,
2013-09-11 23:05:00,74.9,44.0,29.90,East,99,1.0,16.0,33,0.00,,,0.00,weatherlink.com 1.10,2013-09-12 05:05:00,
2013-09-11 23:20:00,73.5,44.0,29.90,NNE,26,3.0,8.0,35,0.00,,,0.00,weatherlink.com 1.10,2013-09-12 05:20:00,
2013-09-11 23:35:00,71.6,44.0,29.90,SSE,159,0.0,2.0,37,0.00,,,0.00,weatherlink.com 1.10,2013-09-12 05:35:00,
2013-09-11 23:50:00,70.5,44.0,29.90,NE,36,0.0,6.0,38,0.00,,,0.00,weatherlink.com 1.10,2013-09-12 05:50:00,